sensor_id;sensor_type;location;lat;lon;timestamp;pressure;altitude;pressure_sealevel;temperature;humidity
3812;BME280;1921;49.368;11.068;2022-09-16T00:01:18;96978.88;;;14.05;100.00
3812;BME280;1921;49.368;11.068;2022-09-16T00:03:46;96987.88;;;14.09;100.00
3812;BME280;1921;49.368;11.068;2022-09-16T00:06:25;97039.75;;;14.32;100.00
3812;BME280;1921;49.368;11.068;2022-09-16T00:08:54;97026.00;;;14.37;100.00
3812;BME280;1921;49.368;11.068;2022-09-16T00:11:21;97016.38;;;14.31;100.00
3812;BME280;1921;49.368;11.068;2022-09-16T00:13:47;97010.97;;;14.25;100.00
3812;BME280;1921;49.368;11.068;2022-09-16T00:16:23;97043.47;;;14.49;100.00
3812;BME280;1921;49.368;11.068;2022-09-16T00:18:56;97059.97;;;14.57;100.00
3812;BME280;1921;49.368;11.068;2022-09-16T00:21:23;97016.72;;;14.34;100.00
3812;BME280;1921;49.368;11.068;2022-09-16T00:23:49;97040.66;;;14.44;100.00
3812;BME280;1921;49.368;11.068;2022-09-16T00:26:16;97064.19;;;14.58;100.00
3812;BME280;1921;49.368;11.068;2022-09-16T00:28:42;97013.25;;;14.15;100.00
3812;BME280;1921;49.368;11.068;2022-09-16T00:31:08;97072.50;;;14.54;100.00
3812;BME280;1921;49.368;11.068;2022-09-16T00:33:34;97004.66;;;14.08;100.00
3812;BME280;1921;49.368;11.068;2022-09-16T00:36:09;97053.16;;;14.49;100.00
3812;BME280;1921;49.368;11.068;2022-09-16T00:38:36;96992.72;;;14.12;100.00
3812;BME280;1921;49.368;11.068;2022-09-16T00:41:03;97030.28;;;14.31;100.00
3812;BME280;1921;49.368;11.068;2022-09-16T00:43:55;97050.34;;;14.44;100.00
3812;BME280;1921;49.368;11.068;2022-09-16T00:49:24;97063.88;;;14.41;100.00
3812;BME280;1921;49.368;11.068;2022-09-16T00:51:56;97036.16;;;14.26;100.00
3812;BME280;1921;49.368;11.068;2022-09-16T00:54:24;97002.63;;;14.10;100.00
3812;BME280;1921;49.368;11.068;2022-09-16T00:56:53;97007.25;;;14.08;100.00
3812;BME280;1921;49.368;11.068;2022-09-16T00:59:30;97056.19;;;14.46;100.00
3812;BME280;1921;49.368;11.068;2022-09-16T01:02:00;97061.66;;;14.44;100.00
3812;BME280;1921;49.368;11.068;2022-09-16T01:04:31;96987.25;;;13.89;100.00
3812;BME280;1921;49.368;11.068;2022-09-16T01:06:59;97014.56;;;14.06;100.00
3812;BME280;1921;49.368;11.068;2022-09-16T01:09:26;97017.00;;;14.01;100.00
3812;BME280;1921;49.368;11.068;2022-09-16T01:11:53;97005.19;;;13.92;100.00
3812;BME280;1921;49.368;11.068;2022-09-16T01:14:21;96997.09;;;13.93;100.00
3812;BME280;1921;49.368;11.068;2022-09-16T01:25:41;97062.84;;;14.23;100.00
3812;BME280;1921;49.368;11.068;2022-09-16T01:28:53;97059.59;;;14.21;100.00
3812;BME280;1921;49.368;11.068;2022-09-16T01:46:13;97014.16;;;14.02;100.00
3812;BME280;1921;49.368;11.068;2022-09-16T01:48:55;97016.84;;;13.96;100.00
3812;BME280;1921;49.368;11.068;2022-09-16T01:52:13;97062.41;;;14.26;100.00
3812;BME280;1921;49.368;11.068;2022-09-16T01:54:42;97071.69;;;14.29;100.00
3812;BME280;1921;49.368;11.068;2022-09-16T01:59:56;97070.03;;;14.28;100.00
3812;BME280;1921;49.368;11.068;2022-09-16T02:02:44;97054.16;;;14.23;100.00
3812;BME280;1921;49.368;11.068;2022-09-16T02:05:18;97061.47;;;14.14;100.00
3812;BME280;1921;49.368;11.068;2022-09-16T02:07:51;97033.72;;;14.07;100.00
3812;BME280;1921;49.368;11.068;2022-09-16T02:10:27;96983.72;;;13.77;100.00
3812;BME280;1921;49.368;11.068;2022-09-16T02:13:31;97061.00;;;14.24;100.00
3812;BME280;1921;49.368;11.068;2022-09-16T02:16:09;97026.75;;;13.94;100.00
3812;BME280;1921;49.368;11.068;2022-09-16T02:18:40;97063.03;;;14.22;100.00
3812;BME280;1921;49.368;11.068;2022-09-16T02:21:11;97021.50;;;13.94;100.00
3812;BME280;1921;49.368;11.068;2022-09-16T02:23:47;97060.69;;;14.14;100.00
3812;BME280;1921;49.368;11.068;2022-09-16T02:26:19;97018.94;;;13.87;100.00
3812;BME280;1921;49.368;11.068;2022-09-16T02:28:48;97055.25;;;14.09;100.00
3812;BME280;1921;49.368;11.068;2022-09-16T02:31:16;97012.72;;;13.82;100.00
3812;BME280;1921;49.368;11.068;2022-09-16T02:33:52;97023.81;;;13.77;100.00
3812;BME280;1921;49.368;11.068;2022-09-16T02:36:23;97020.78;;;13.80;100.00
3812;BME280;1921;49.368;11.068;2022-09-16T02:39:00;97050.28;;;14.00;100.00
3812;BME280;1921;49.368;11.068;2022-09-16T02:41:27;97063.63;;;13.99;100.00
3812;BME280;1921;49.368;11.068;2022-09-16T02:43:53;97074.22;;;14.11;100.00
3812;BME280;1921;49.368;11.068;2022-09-16T02:52:24;97066.16;;;14.12;100.00
3812;BME280;1921;49.368;11.068;2022-09-16T02:55:33;97030.44;;;13.86;100.00
3812;BME280;1921;49.368;11.068;2022-09-16T02:58:05;97074.00;;;14.12;100.00
3812;BME280;1921;49.368;11.068;2022-09-16T03:00:35;97053.72;;;14.01;100.00
3812;BME280;1921;49.368;11.068;2022-09-16T03:03:02;97059.28;;;14.11;100.00
3812;BME280;1921;49.368;11.068;2022-09-16T03:05:29;96972.13;;;13.59;100.00
3812;BME280;1921;49.368;11.068;2022-09-16T03:07:55;97063.47;;;14.19;100.00
3812;BME280;1921;49.368;11.068;2022-09-16T03:10:26;97021.09;;;13.90;100.00
3812;BME280;1921;49.368;11.068;2022-09-16T03:13:16;97067.69;;;14.20;100.00
3812;BME280;1921;49.368;11.068;2022-09-16T03:16:28;97065.28;;;14.18;100.00
3812;BME280;1921;49.368;11.068;2022-09-16T03:22:50;97065.91;;;14.14;100.00
3812;BME280;1921;49.368;11.068;2022-09-16T03:28:57;97054.63;;;14.13;100.00
3812;BME280;1921;49.368;11.068;2022-09-16T03:32:05;97013.50;;;13.82;100.00
3812;BME280;1921;49.368;11.068;2022-09-16T03:34:56;97060.91;;;14.12;100.00
3812;BME280;1921;49.368;11.068;2022-09-16T03:37:27;97034.34;;;14.02;100.00
3812;BME280;1921;49.368;11.068;2022-09-16T03:39:57;96992.00;;;13.73;100.00
3812;BME280;1921;49.368;11.068;2022-09-16T03:42:24;97046.22;;;14.05;100.00
3812;BME280;1921;49.368;11.068;2022-09-16T03:44:50;97057.09;;;14.08;100.00
3812;BME280;1921;49.368;11.068;2022-09-16T03:47:16;97002.44;;;13.80;100.00
3812;BME280;1921;49.368;11.068;2022-09-16T03:49:42;96982.97;;;13.69;100.00
3812;BME280;1921;49.368;11.068;2022-09-16T03:52:09;97013.47;;;13.89;100.00
3812;BME280;1921;49.368;11.068;2022-09-16T03:54:35;97008.66;;;13.86;100.00
3812;BME280;1921;49.368;11.068;2022-09-16T03:57:02;97015.06;;;13.90;100.00
3812;BME280;1921;49.368;11.068;2022-09-16T03:59:28;97039.16;;;14.05;100.00
3812;BME280;1921;49.368;11.068;2022-09-16T04:01:54;97011.88;;;13.88;100.00
3812;BME280;1921;49.368;11.068;2022-09-16T04:04:20;96998.00;;;13.81;100.00
3812;BME280;1921;49.368;11.068;2022-09-16T04:06:46;97012.88;;;13.87;100.00
3812;BME280;1921;49.368;11.068;2022-09-16T04:09:12;97059.28;;;14.11;100.00
3812;BME280;1921;49.368;11.068;2022-09-16T04:11:39;97012.94;;;13.80;100.00
3812;BME280;1921;49.368;11.068;2022-09-16T04:14:06;96985.59;;;13.69;100.00
3812;BME280;1921;49.368;11.068;2022-09-16T04:16:32;97028.13;;;13.96;100.00
3812;BME280;1921;49.368;11.068;2022-09-16T04:18:58;97001.88;;;13.71;100.00
3812;BME280;1921;49.368;11.068;2022-09-16T04:21:26;97030.44;;;13.86;100.00
3812;BME280;1921;49.368;11.068;2022-09-16T04:23:52;96987.00;;;13.65;100.00
3812;BME280;1921;49.368;11.068;2022-09-16T04:26:19;96972.00;;;13.54;100.00
3812;BME280;1921;49.368;11.068;2022-09-16T04:28:45;97010.34;;;13.73;100.00
3812;BME280;1921;49.368;11.068;2022-09-16T04:31:14;96962.75;;;13.45;100.00
3812;BME280;1921;49.368;11.068;2022-09-16T04:33:40;96991.44;;;13.65;100.00
3812;BME280;1921;49.368;11.068;2022-09-16T04:36:13;97002.31;;;13.68;100.00
3812;BME280;1921;49.368;11.068;2022-09-16T04:38:41;96974.19;;;13.57;100.00
3812;BME280;1921;49.368;11.068;2022-09-16T04:41:27;97003.06;;;13.76;100.00
3812;BME280;1921;49.368;11.068;2022-09-16T04:43:56;97036.22;;;13.95;100.00
3812;BME280;1921;49.368;11.068;2022-09-16T04:46:27;97008.50;;;13.81;100.00
3812;BME280;1921;49.368;11.068;2022-09-16T04:48:54;97001.66;;;13.80;100.00
3812;BME280;1921;49.368;11.068;2022-09-16T04:51:21;96954.81;;;13.58;100.00
3812;BME280;1921;49.368;11.068;2022-09-16T04:53:48;96960.09;;;13.52;100.00
3812;BME280;1921;49.368;11.068;2022-09-16T04:56:18;96974.09;;;13.70;100.00
3812;BME280;1921;49.368;11.068;2022-09-16T04:58:50;96998.97;;;13.86;100.00
3812;BME280;1921;49.368;11.068;2022-09-16T05:01:23;96992.38;;;13.77;100.00
3812;BME280;1921;49.368;11.068;2022-09-16T05:03:52;97006.28;;;13.78;100.00
3812;BME280;1921;49.368;11.068;2022-09-16T05:06:23;97050.28;;;14.00;100.00
3812;BME280;1921;49.368;11.068;2022-09-16T05:08:50;97025.13;;;13.93;100.00
3812;BME280;1921;49.368;11.068;2022-09-16T05:11:21;96981.78;;;13.65;100.00
3812;BME280;1921;49.368;11.068;2022-09-16T05:13:47;96980.78;;;13.66;100.00
3812;BME280;1921;49.368;11.068;2022-09-16T05:16:17;97023.94;;;13.89;100.00
3812;BME280;1921;49.368;11.068;2022-09-16T05:18:45;97007.28;;;13.77;100.00
3812;BME280;1921;49.368;11.068;2022-09-16T05:21:15;97043.84;;;13.96;100.00
3812;BME280;1921;49.368;11.068;2022-09-16T05:23:41;97057.94;;;14.02;100.00
3812;BME280;1921;49.368;11.068;2022-09-16T05:28:41;97055.31;;;14.02;100.00
3812;BME280;1921;49.368;11.068;2022-09-16T05:31:33;97059.66;;;14.15;100.00
3812;BME280;1921;49.368;11.068;2022-09-16T05:36:30;97019.47;;;13.96;100.00
3812;BME280;1921;49.368;11.068;2022-09-16T05:38:56;97018.31;;;13.92;100.00
3812;BME280;1921;49.368;11.068;2022-09-16T05:41:22;97046.03;;;14.06;100.00
3812;BME280;1921;49.368;11.068;2022-09-16T05:43:49;97039.00;;;14.00;100.00
3812;BME280;1921;49.368;11.068;2022-09-16T05:46:19;97039.63;;;13.95;100.00
3812;BME280;1921;49.368;11.068;2022-09-16T05:48:46;97005.59;;;13.89;100.00
3812;BME280;1921;49.368;11.068;2022-09-16T05:51:18;97025.69;;;14.01;100.00
3812;BME280;1921;49.368;11.068;2022-09-16T05:53:47;97046.13;;;14.18;100.00
3812;BME280;1921;49.368;11.068;2022-09-16T05:56:22;97022.09;;;13.96;100.00
3812;BME280;1921;49.368;11.068;2022-09-16T05:58:51;96997.75;;;13.89;99.90
3812;BME280;1921;49.368;11.068;2022-09-16T06:01:21;97072.19;;;14.38;100.00
3812;BME280;1921;49.368;11.068;2022-09-16T06:03:49;97036.38;;;14.25;98.34
3812;BME280;1921;49.368;11.068;2022-09-16T06:06:30;97012.78;;;14.25;96.60
3812;BME280;1921;49.368;11.068;2022-09-16T06:09:00;97021.03;;;14.28;97.12
3812;BME280;1921;49.368;11.068;2022-09-16T06:11:27;97022.47;;;14.24;95.92
3812;BME280;1921;49.368;11.068;2022-09-16T06:13:59;97041.34;;;14.33;95.66
3812;BME280;1921;49.368;11.068;2022-09-16T06:16:26;97008.19;;;14.20;96.09
3812;BME280;1921;49.368;11.068;2022-09-16T06:18:54;97050.63;;;14.36;95.28
3812;BME280;1921;49.368;11.068;2022-09-16T06:21:20;97059.56;;;14.53;95.79
3812;BME280;1921;49.368;11.068;2022-09-16T06:23:47;97049.94;;;14.47;93.04
3812;BME280;1921;49.368;11.068;2022-09-16T06:26:16;97034.19;;;14.47;93.47
3812;BME280;1921;49.368;11.068;2022-09-16T06:28:43;97021.72;;;14.42;93.25
3812;BME280;1921;49.368;11.068;2022-09-16T06:31:22;97000.00;;;14.35;93.46
3812;BME280;1921;49.368;11.068;2022-09-16T06:33:49;97004.84;;;14.32;92.75
3812;BME280;1921;49.368;11.068;2022-09-16T06:36:24;97003.16;;;14.19;93.15
3812;BME280;1921;49.368;11.068;2022-09-16T06:38:50;96994.44;;;14.25;92.17
3812;BME280;1921;49.368;11.068;2022-09-16T06:41:18;97009.88;;;14.33;92.12
3812;BME280;1921;49.368;11.068;2022-09-16T06:43:45;96981.47;;;14.30;91.35
3812;BME280;1921;49.368;11.068;2022-09-16T06:46:15;97024.34;;;14.67;90.86
3812;BME280;1921;49.368;11.068;2022-09-16T06:48:45;96990.81;;;14.44;91.35
3812;BME280;1921;49.368;11.068;2022-09-16T06:51:13;97045.78;;;14.82;91.10
3812;BME280;1921;49.368;11.068;2022-09-16T06:53:41;96981.03;;;14.33;90.76
3812;BME280;1921;49.368;11.068;2022-09-16T06:56:14;97012.16;;;14.54;90.47
3812;BME280;1921;49.368;11.068;2022-09-16T06:58:43;97031.97;;;14.69;90.99
3812;BME280;1921;49.368;11.068;2022-09-16T07:01:18;97002.69;;;14.53;90.82
3812;BME280;1921;49.368;11.068;2022-09-16T07:03:48;97002.81;;;14.59;89.77
3812;BME280;1921;49.368;11.068;2022-09-16T07:06:17;96848.31;;;13.45;89.71
3812;BME280;1921;49.368;11.068;2022-09-16T07:08:43;97033.22;;;14.66;90.16
3812;BME280;1921;49.368;11.068;2022-09-16T07:13:41;97018.00;;;14.75;88.01
3812;BME280;1921;49.368;11.068;2022-09-16T07:16:10;97030.16;;;14.88;88.67
3812;BME280;1921;49.368;11.068;2022-09-16T07:18:37;97050.31;;;14.94;87.97
3812;BME280;1921;49.368;11.068;2022-09-16T07:21:12;97030.25;;;14.81;88.31
3812;BME280;1921;49.368;11.068;2022-09-16T07:23:39;97027.69;;;14.93;85.93
3812;BME280;1921;49.368;11.068;2022-09-16T07:26:22;97002.47;;;14.92;86.80
3812;BME280;1921;49.368;11.068;2022-09-16T07:28:51;97016.38;;;15.11;86.42
3812;BME280;1921;49.368;11.068;2022-09-16T07:31:26;97042.69;;;15.41;85.17
3812;BME280;1921;49.368;11.068;2022-09-16T07:33:56;97048.44;;;15.49;84.29
3812;BME280;1921;49.368;11.068;2022-09-16T07:36:26;97023.00;;;15.61;81.54
3812;BME280;1921;49.368;11.068;2022-09-16T07:38:54;97065.13;;;16.03;83.31
3812;BME280;1921;49.368;11.068;2022-09-16T07:41:25;97060.59;;;16.22;83.44
3812;BME280;1921;49.368;11.068;2022-09-16T07:43:54;97006.16;;;15.81;81.24
3812;BME280;1921;49.368;11.068;2022-09-16T07:46:20;97001.41;;;16.13;79.83
3812;BME280;1921;49.368;11.068;2022-09-16T07:48:48;96992.50;;;16.37;79.43
3812;BME280;1921;49.368;11.068;2022-09-16T07:51:18;97024.44;;;16.64;76.82
3812;BME280;1921;49.368;11.068;2022-09-16T07:53:45;97045.50;;;17.00;77.91
3812;BME280;1921;49.368;11.068;2022-09-16T07:56:16;97049.66;;;16.95;73.24
3812;BME280;1921;49.368;11.068;2022-09-16T07:58:43;97012.56;;;16.74;73.69
3812;BME280;1921;49.368;11.068;2022-09-16T08:01:12;97032.91;;;16.66;74.66
3812;BME280;1921;49.368;11.068;2022-09-16T08:03:40;97032.47;;;16.46;75.07
3812;BME280;1921;49.368;11.068;2022-09-16T08:06:13;97012.88;;;16.65;74.75
3812;BME280;1921;49.368;11.068;2022-09-16T08:08:40;97001.09;;;16.68;74.34
3812;BME280;1921;49.368;11.068;2022-09-16T08:11:07;96985.66;;;16.72;73.12
3812;BME280;1921;49.368;11.068;2022-09-16T08:13:35;97028.19;;;17.04;72.59
3812;BME280;1921;49.368;11.068;2022-09-16T08:16:04;97010.44;;;16.99;71.54
3812;BME280;1921;49.368;11.068;2022-09-16T08:18:31;97030.09;;;17.20;72.02
3812;BME280;1921;49.368;11.068;2022-09-16T08:20:57;97018.47;;;17.04;68.01
3812;BME280;1921;49.368;11.068;2022-09-16T08:23:24;97043.78;;;16.93;67.64
3812;BME280;1921;49.368;11.068;2022-09-16T08:25:57;97005.66;;;16.49;69.08
3812;BME280;1921;49.368;11.068;2022-09-16T08:28:23;97022.38;;;16.43;70.60
3812;BME280;1921;49.368;11.068;2022-09-16T08:30:49;96996.53;;;16.40;70.95
3812;BME280;1921;49.368;11.068;2022-09-16T08:33:15;97022.03;;;16.63;72.50
3812;BME280;1921;49.368;11.068;2022-09-16T08:36:10;97011.75;;;16.50;69.49
3812;BME280;1921;49.368;11.068;2022-09-16T08:38:33;97013.22;;;16.69;69.31
3812;BME280;1921;49.368;11.068;2022-09-16T08:45:05;97072.06;;;17.10;69.85
3812;BME280;1921;49.368;11.068;2022-09-16T08:48:03;97029.25;;;16.91;67.09
3812;BME280;1921;49.368;11.068;2022-09-16T08:50:37;96920.66;;;16.25;65.89
3812;BME280;1921;49.368;11.068;2022-09-16T08:53:33;97046.50;;;17.10;67.54
3812;BME280;1921;49.368;11.068;2022-09-16T08:55:57;97039.75;;;17.14;66.27
3812;BME280;1921;49.368;11.068;2022-09-16T08:58:39;97005.19;;;16.99;66.22
3812;BME280;1921;49.368;11.068;2022-09-16T09:01:33;97054.84;;;17.19;65.81
3812;BME280;1921;49.368;11.068;2022-09-16T09:04:01;97026.06;;;16.77;66.88
3812;BME280;1921;49.368;11.068;2022-09-16T09:06:55;97070.22;;;17.10;66.24
3812;BME280;1921;49.368;11.068;2022-09-16T09:09:34;97067.25;;;16.95;68.21
3812;BME280;1921;49.368;11.068;2022-09-16T09:12:23;97065.47;;;16.72;66.87
3812;BME280;1921;49.368;11.068;2022-09-16T09:15:40;97077.34;;;16.86;66.64
3812;BME280;1921;49.368;11.068;2022-09-16T09:26:50;97034.41;;;16.51;67.25
3812;BME280;1921;49.368;11.068;2022-09-16T09:32:44;97082.97;;;16.78;66.09
3812;BME280;1921;49.368;11.068;2022-09-16T09:41:14;97078.38;;;17.09;67.83
3812;BME280;1921;49.368;11.068;2022-09-16T09:47:00;97034.81;;;17.06;67.32
3812;BME280;1921;49.368;11.068;2022-09-16T09:49:38;97079.22;;;17.26;65.06
3812;BME280;1921;49.368;11.068;2022-09-16T09:52:45;97078.44;;;17.26;65.58
3812;BME280;1921;49.368;11.068;2022-09-16T09:55:21;97015.41;;;16.84;66.25
3812;BME280;1921;49.368;11.068;2022-09-16T09:58:01;97073.81;;;17.33;65.00
3812;BME280;1921;49.368;11.068;2022-09-16T10:00:30;97078.63;;;17.47;68.68
3812;BME280;1921;49.368;11.068;2022-09-16T10:03:25;97076.75;;;17.60;67.21
3812;BME280;1921;49.368;11.068;2022-09-16T10:05:51;97040.31;;;17.45;66.23
3812;BME280;1921;49.368;11.068;2022-09-16T10:08:27;97028.44;;;17.42;65.81
3812;BME280;1921;49.368;11.068;2022-09-16T10:11:02;97044.97;;;17.26;63.69
3812;BME280;1921;49.368;11.068;2022-09-16T10:13:48;97023.53;;;17.34;64.32
3812;BME280;1921;49.368;11.068;2022-09-16T10:16:19;97008.56;;;17.52;65.03
3812;BME280;1921;49.368;11.068;2022-09-16T10:19:06;97037.50;;;17.75;65.09
3812;BME280;1921;49.368;11.068;2022-09-16T10:21:41;97020.31;;;17.72;63.97
3812;BME280;1921;49.368;11.068;2022-09-16T10:26:55;97024.19;;;17.41;66.35
3812;BME280;1921;49.368;11.068;2022-09-16T10:29:22;97030.78;;;17.27;68.01
3812;BME280;1921;49.368;11.068;2022-09-16T10:31:48;97006.09;;;17.05;68.02
3812;BME280;1921;49.368;11.068;2022-09-16T10:36:56;97054.59;;;17.32;67.44
3812;BME280;1921;49.368;11.068;2022-09-16T10:39:24;96973.03;;;16.85;66.23
3812;BME280;1921;49.368;11.068;2022-09-16T10:41:51;97060.53;;;17.39;64.48
3812;BME280;1921;49.368;11.068;2022-09-16T10:44:23;97059.53;;;17.57;66.17
3812;BME280;1921;49.368;11.068;2022-09-16T10:47:01;96984.97;;;17.45;64.88
3812;BME280;1921;49.368;11.068;2022-09-16T10:49:44;97016.56;;;17.85;62.52
3812;BME280;1921;49.368;11.068;2022-09-16T10:52:21;97057.47;;;18.33;63.48
3812;BME280;1921;49.368;11.068;2022-09-16T10:54:47;97047.28;;;18.75;61.17
3812;BME280;1921;49.368;11.068;2022-09-16T11:00:20;96995.03;;;18.99;57.68
3812;BME280;1921;49.368;11.068;2022-09-16T11:14:39;97040.31;;;18.86;57.32
3812;BME280;1921;49.368;11.068;2022-09-16T11:20:45;97052.19;;;18.67;55.42
3812;BME280;1921;49.368;11.068;2022-09-16T11:23:33;97054.00;;;18.49;56.68
3812;BME280;1921;49.368;11.068;2022-09-16T11:29:36;97008.66;;;18.19;56.21
3812;BME280;1921;49.368;11.068;2022-09-16T11:35:43;97041.94;;;18.37;57.43
3812;BME280;1921;49.368;11.068;2022-09-16T11:38:28;97013.16;;;18.01;58.15
3812;BME280;1921;49.368;11.068;2022-09-16T11:41:34;97026.97;;;18.25;58.90
3812;BME280;1921;49.368;11.068;2022-09-16T11:47:25;97002.19;;;18.10;58.66
3812;BME280;1921;49.368;11.068;2022-09-16T11:50:27;97045.06;;;18.50;56.50
3812;BME280;1921;49.368;11.068;2022-09-16T11:53:21;97045.94;;;18.22;58.60
3812;BME280;1921;49.368;11.068;2022-09-16T11:56:11;96967.34;;;17.62;59.84
3812;BME280;1921;49.368;11.068;2022-09-16T11:58:54;96995.38;;;17.80;59.01
3812;BME280;1921;49.368;11.068;2022-09-16T12:02:37;96905.13;;;17.16;62.21
3812;BME280;1921;49.368;11.068;2022-09-16T12:05:05;97001.25;;;17.70;62.13
3812;BME280;1921;49.368;11.068;2022-09-16T12:10:32;96978.03;;;17.84;61.49
3812;BME280;1921;49.368;11.068;2022-09-16T12:13:08;97019.56;;;18.22;61.80
3812;BME280;1921;49.368;11.068;2022-09-16T12:15:48;97034.91;;;18.59;59.41
3812;BME280;1921;49.368;11.068;2022-09-16T12:18:44;96986.16;;;18.67;59.44
3812;BME280;1921;49.368;11.068;2022-09-16T12:21:20;96980.44;;;19.19;58.40
3812;BME280;1921;49.368;11.068;2022-09-16T12:27:11;96839.75;;;18.63;54.21
3812;BME280;1921;49.368;11.068;2022-09-16T12:29:59;96980.28;;;19.79;53.63
3812;BME280;1921;49.368;11.068;2022-09-16T12:35:36;96961.97;;;19.73;52.41
3812;BME280;1921;49.368;11.068;2022-09-16T12:38:04;96979.22;;;20.07;51.82
3812;BME280;1921;49.368;11.068;2022-09-16T12:40:41;96947.44;;;20.07;50.13
3812;BME280;1921;49.368;11.068;2022-09-16T12:43:49;96999.06;;;20.10;50.17
3812;BME280;1921;49.368;11.068;2022-09-16T12:47:17;96962.72;;;19.41;52.06
3812;BME280;1921;49.368;11.068;2022-09-16T13:01:45;96956.75;;;19.56;57.88
3812;BME280;1921;49.368;11.068;2022-09-16T13:04:23;96952.50;;;19.77;57.64
3812;BME280;1921;49.368;11.068;2022-09-16T13:06:54;96949.91;;;19.87;56.90
3812;BME280;1921;49.368;11.068;2022-09-16T13:09:35;96947.22;;;19.77;55.83
3812;BME280;1921;49.368;11.068;2022-09-16T13:12:25;96957.59;;;19.83;57.56
3812;BME280;1921;49.368;11.068;2022-09-16T13:14:55;96855.06;;;18.82;59.05
3812;BME280;1921;49.368;11.068;2022-09-16T13:17:37;96933.56;;;19.09;60.06
3812;BME280;1921;49.368;11.068;2022-09-16T13:23:12;96963.03;;;19.45;61.39
3812;BME280;1921;49.368;11.068;2022-09-16T13:28:43;96930.69;;;18.50;62.71
3812;BME280;1921;49.368;11.068;2022-09-16T13:34:13;96952.28;;;18.25;63.54
3812;BME280;1921;49.368;11.068;2022-09-16T13:36:39;96924.91;;;18.31;63.55
3812;BME280;1921;49.368;11.068;2022-09-16T13:39:14;96925.22;;;18.95;61.00
3812;BME280;1921;49.368;11.068;2022-09-16T13:41:44;96919.66;;;19.46;57.35
3812;BME280;1921;49.368;11.068;2022-09-16T13:49:52;96951.13;;;19.47;58.36
3812;BME280;1921;49.368;11.068;2022-09-16T13:52:27;96939.50;;;19.48;57.08
3812;BME280;1921;49.368;11.068;2022-09-16T13:54:55;96965.66;;;20.41;57.49
3812;BME280;1921;49.368;11.068;2022-09-16T13:57:43;96941.88;;;21.04;51.48
3812;BME280;1921;49.368;11.068;2022-09-16T14:00:18;96947.84;;;20.68;51.71
3812;BME280;1921;49.368;11.068;2022-09-16T14:03:23;96862.06;;;19.53;53.26
3812;BME280;1921;49.368;11.068;2022-09-16T14:08:54;96945.16;;;20.63;51.51
3812;BME280;1921;49.368;11.068;2022-09-16T14:14:19;96808.94;;;20.54;50.24
3812;BME280;1921;49.368;11.068;2022-09-16T14:16:47;96928.94;;;21.22;51.05
3812;BME280;1921;49.368;11.068;2022-09-16T14:19:27;96938.59;;;22.10;47.94
3812;BME280;1921;49.368;11.068;2022-09-16T14:24:38;96919.47;;;22.13;47.24
3812;BME280;1921;49.368;11.068;2022-09-16T14:27:34;96927.59;;;22.63;45.53
3812;BME280;1921;49.368;11.068;2022-09-16T14:30:12;96945.16;;;22.53;45.62
3812;BME280;1921;49.368;11.068;2022-09-16T14:32:39;96955.59;;;22.19;46.42
3812;BME280;1921;49.368;11.068;2022-09-16T14:35:21;96947.06;;;21.56;47.74
3812;BME280;1921;49.368;11.068;2022-09-16T14:37:56;96904.75;;;20.41;50.04
3812;BME280;1921;49.368;11.068;2022-09-16T14:40:24;96920.63;;;20.41;50.73
3812;BME280;1921;49.368;11.068;2022-09-16T14:43:01;96941.59;;;20.05;52.64
3812;BME280;1921;49.368;11.068;2022-09-16T14:45:29;96836.69;;;19.20;51.26
3812;BME280;1921;49.368;11.068;2022-09-16T14:47:57;96916.97;;;19.68;51.50
3812;BME280;1921;49.368;11.068;2022-09-16T14:50:31;96874.50;;;19.52;51.20
3812;BME280;1921;49.368;11.068;2022-09-16T14:53:00;96951.53;;;20.62;50.22
3812;BME280;1921;49.368;11.068;2022-09-16T14:55:29;96902.63;;;20.95;48.83
3812;BME280;1921;49.368;11.068;2022-09-16T14:57:57;96906.44;;;21.61;48.78
3812;BME280;1921;49.368;11.068;2022-09-16T15:00:29;96934.00;;;22.56;46.03
3812;BME280;1921;49.368;11.068;2022-09-16T15:03:08;96929.44;;;23.32;42.41
3812;BME280;1921;49.368;11.068;2022-09-16T15:05:40;96939.94;;;23.03;43.89
3812;BME280;1921;49.368;11.068;2022-09-16T15:08:27;96943.63;;;22.07;46.30
3812;BME280;1921;49.368;11.068;2022-09-16T15:11:04;96882.69;;;20.78;48.26
3812;BME280;1921;49.368;11.068;2022-09-16T15:13:37;96917.03;;;20.15;50.89
3812;BME280;1921;49.368;11.068;2022-09-16T15:16:16;96944.41;;;19.94;52.23
3812;BME280;1921;49.368;11.068;2022-09-16T15:18:59;96948.38;;;19.59;53.33
3812;BME280;1921;49.368;11.068;2022-09-16T15:21:34;96957.69;;;19.18;55.93
3812;BME280;1921;49.368;11.068;2022-09-16T15:24:03;96932.44;;;18.61;57.38
3812;BME280;1921;49.368;11.068;2022-09-16T15:26:43;96909.25;;;18.24;58.50
3812;BME280;1921;49.368;11.068;2022-09-16T15:31:46;96921.00;;;17.66;61.75
3812;BME280;1921;49.368;11.068;2022-09-16T15:34:21;96930.19;;;17.47;62.58
3812;BME280;1921;49.368;11.068;2022-09-16T15:36:56;96845.81;;;16.85;62.73
3812;BME280;1921;49.368;11.068;2022-09-16T15:39:34;96962.03;;;17.29;64.69
3812;BME280;1921;49.368;11.068;2022-09-16T15:42:16;96975.66;;;17.54;64.10
3812;BME280;1921;49.368;11.068;2022-09-16T15:44:49;96975.75;;;17.59;63.48
3812;BME280;1921;49.368;11.068;2022-09-16T15:47:29;96963.31;;;17.43;62.99
3812;BME280;1921;49.368;11.068;2022-09-16T15:50:08;96974.00;;;17.36;63.27
3812;BME280;1921;49.368;11.068;2022-09-16T15:56:08;96850.34;;;16.73;64.09
3812;BME280;1921;49.368;11.068;2022-09-16T15:58:45;96914.84;;;17.44;62.51
3812;BME280;1921;49.368;11.068;2022-09-16T16:04:05;96917.31;;;18.56;57.14
3812;BME280;1921;49.368;11.068;2022-09-16T16:06:51;96977.72;;;19.35;54.07
3812;BME280;1921;49.368;11.068;2022-09-16T16:12:08;96938.41;;;18.51;54.96
3812;BME280;1921;49.368;11.068;2022-09-16T16:14:36;96909.16;;;18.36;54.04
3812;BME280;1921;49.368;11.068;2022-09-16T16:17:18;96980.50;;;18.24;56.50
3812;BME280;1921;49.368;11.068;2022-09-16T16:19:47;96949.25;;;17.37;58.63
3812;BME280;1921;49.368;11.068;2022-09-16T16:22:14;96939.16;;;17.17;59.94
3812;BME280;1921;49.368;11.068;2022-09-16T16:24:40;96965.34;;;16.95;62.39
3812;BME280;1921;49.368;11.068;2022-09-16T16:27:07;96951.53;;;16.65;61.87
3812;BME280;1921;49.368;11.068;2022-09-16T16:29:33;96981.75;;;16.74;63.81